createdAt,value
2023-05-21T00:03:16.331Z,15.03
2023-05-21T00:08:39.173Z,14.77
2023-05-21T00:14:01.554Z,14.17
2023-05-21T00:19:23.959Z,17.93
2023-05-21T00:24:46.283Z,18.25
2023-05-21T00:30:08.998Z,16.23
2023-05-21T00:35:31.474Z,20.13
2023-05-21T00:40:54.004Z,17.90
2023-05-21T00:46:19.746Z,21.50
2023-05-21T00:51:45.337Z,21.63
2023-05-21T00:57:10.120Z,17.90
2023-05-21T01:02:34.931Z,20.80
2023-05-21T01:07:58.654Z,18.87
2023-05-21T01:13:23.297Z,18.43
2023-05-21T01:18:46.803Z,20.27
2023-05-21T01:24:08.972Z,22.43
2023-05-21T01:29:31.296Z,19.77
2023-05-21T01:35:02.255Z,25.53
2023-05-21T01:40:28.508Z,23.80
2023-05-21T01:45:55.579Z,24.87
2023-05-21T01:51:18.219Z,23.20
2023-05-21T01:56:40.668Z,31.40
2023-05-21T02:02:03.019Z,24.97
2023-05-21T02:07:25.480Z,25.50
2023-05-21T02:12:47.822Z,25.03
2023-05-21T02:18:10.179Z,28.53
2023-05-21T02:23:32.610Z,25.10
2023-05-21T02:28:55.547Z,29.93
2023-05-21T02:34:20.778Z,30.67
2023-05-21T02:39:43.145Z,26.50
2023-05-21T02:45:09.933Z,28.87
2023-05-21T02:50:33.681Z,31.07
2023-05-21T02:55:56.694Z,31.73
2023-05-21T03:01:19.384Z,29.97
2023-05-21T03:06:44.649Z,31.20
2023-05-21T03:12:09.819Z,27.70
2023-05-21T03:17:32.493Z,27.37
2023-05-21T03:22:55.231Z,31.67
2023-05-21T03:28:18.531Z,37.20
2023-05-21T03:33:45.662Z,32.30
2023-05-21T03:39:17.204Z,30.27
2023-05-21T03:44:39.933Z,29.90
2023-05-21T03:50:21.442Z,29.27
2023-05-21T03:55:44.196Z,29.33
2023-05-21T04:01:08.672Z,32.20
2023-05-21T04:06:32.028Z,32.67
2023-05-21T04:11:54.364Z,31.40
2023-05-21T04:17:17.218Z,30.10
2023-05-21T04:22:40.413Z,30.27
2023-05-21T04:28:03.311Z,34.60
2023-05-21T04:33:25.840Z,30.07
2023-05-21T04:38:48.910Z,36.50
2023-05-21T04:44:14.964Z,32.40
2023-05-21T04:49:39.261Z,32.50
2023-05-21T04:55:01.870Z,32.77
2023-05-21T05:00:26.296Z,34.60
2023-05-21T05:05:48.756Z,34.53
2023-05-21T05:11:11.275Z,35.03
2023-05-21T05:16:35.727Z,35.20
2023-05-21T05:21:58.410Z,30.37
2023-05-21T05:27:21.118Z,27.70
2023-05-21T05:32:43.909Z,30.83
2023-05-21T05:38:09.054Z,38.97
2023-05-21T05:43:32.478Z,37.13
2023-05-21T05:48:55.988Z,28.42
2023-05-21T05:54:19.582Z,26.13
2023-05-21T05:59:41.878Z,27.95
2023-05-21T06:05:06.920Z,26.30
2023-05-21T06:10:29.532Z,28.15
2023-05-21T06:15:53.198Z,28.70
2023-05-21T06:21:16.094Z,35.78
2023-05-21T06:26:39.885Z,25.45
2023-05-21T06:32:03.511Z,28.13
2023-05-21T06:37:26.820Z,27.77
2023-05-21T06:42:50.942Z,26.20
2023-05-21T06:48:33.726Z,27.13
2023-05-21T06:53:56.387Z,25.85
2023-05-21T06:59:19.064Z,23.85
2023-05-21T07:04:41.762Z,21.77
2023-05-21T07:10:04.693Z,23.80
2023-05-21T07:15:27.310Z,22.52
2023-05-21T07:20:50.050Z,21.52
2023-05-21T07:26:12.946Z,21.95
2023-05-21T07:31:35.611Z,23.00
2023-05-21T07:36:58.278Z,20.38
2023-05-21T07:42:20.588Z,19.08
2023-05-21T07:47:47.481Z,24.42
2023-05-21T07:53:10.247Z,22.00
2023-05-21T07:58:35.240Z,18.70
2023-05-21T08:04:01.037Z,21.85
2023-05-21T08:09:23.604Z,19.67
2023-05-21T08:14:46.557Z,19.85
2023-05-21T08:20:13.629Z,18.73
2023-05-21T08:25:37.153Z,21.80
2023-05-21T08:31:00.246Z,16.23
2023-05-21T08:36:23.105Z,14.63
2023-05-21T08:42:00.196Z,20.13
2023-05-21T08:47:26.230Z,16.35
2023-05-21T08:52:50.744Z,16.52
2023-05-21T08:58:15.892Z,15.65
2023-05-21T09:03:40.702Z,14.23
2023-05-21T09:09:11.723Z,13.50
2023-05-21T09:14:43.050Z,13.75
2023-05-21T09:20:16.650Z,12.45
2023-05-21T09:25:49.516Z,15.43
2023-05-21T09:31:19.669Z,11.35
2023-05-21T09:36:43.956Z,17.50
2023-05-21T09:42:06.958Z,14.23
2023-05-21T09:47:29.780Z,18.55
2023-05-21T09:52:53.134Z,24.83
2023-05-21T09:58:15.695Z,13.18
2023-05-21T10:03:40.951Z,13.05
2023-05-21T10:09:07.560Z,11.60
2023-05-21T10:14:32.128Z,9.75
2023-05-21T10:19:57.098Z,11.52
2023-05-21T10:25:22.084Z,9.05
2023-05-21T10:30:45.010Z,9.27
2023-05-21T10:36:07.745Z,10.10
2023-05-21T10:41:42.573Z,10.45
2023-05-21T10:47:22.662Z,10.05
2023-05-21T10:53:13.515Z,9.23
2023-05-21T10:58:36.547Z,10.43
2023-05-21T11:04:08.726Z,6.63
2023-05-21T11:09:31.302Z,7.80
2023-05-21T11:14:58.997Z,5.70
2023-05-21T11:20:34.580Z,8.25
2023-05-21T11:26:03.717Z,9.13
2023-05-21T11:31:27.384Z,5.75
2023-05-21T11:37:10.126Z,8.18
2023-05-21T11:42:33.694Z,8.40
2023-05-21T11:47:56.670Z,8.70
2023-05-21T11:53:18.925Z,7.03
2023-05-21T11:58:42.837Z,8.93
2023-05-21T12:04:06.283Z,6.57
2023-05-21T12:09:31.042Z,6.30
2023-05-21T12:14:55.030Z,11.23
2023-05-21T12:20:17.652Z,6.28
2023-05-21T12:25:43.486Z,6.60
2023-05-21T12:31:06.216Z,5.88
2023-05-21T12:36:32.068Z,10.15
2023-05-21T12:41:55.090Z,7.55
2023-05-21T12:47:18.023Z,7.05
2023-05-21T12:52:43.226Z,6.72
2023-05-21T12:58:08.800Z,10.10
2023-05-21T13:03:36.102Z,9.57
2023-05-21T13:08:58.846Z,6.28
2023-05-21T13:14:21.855Z,11.98
2023-05-21T13:20:21.502Z,6.72
2023-05-21T13:25:44.645Z,7.70
2023-05-21T13:31:06.908Z,10.50
2023-05-21T13:36:29.147Z,6.28
2023-05-21T13:41:51.586Z,5.07
2023-05-21T13:47:14.197Z,8.60
2023-05-21T13:52:38.358Z,8.50
2023-05-21T13:58:00.683Z,6.85
2023-05-21T14:03:23.519Z,7.75
2023-05-21T14:08:45.871Z,7.40
2023-05-21T14:14:08.316Z,5.10
2023-05-21T14:19:32.037Z,4.90
2023-05-21T14:24:54.379Z,4.85
2023-05-21T14:30:16.800Z,5.50
2023-05-21T14:35:39.657Z,5.25
2023-05-21T14:41:01.964Z,4.97
2023-05-21T14:46:24.503Z,6.43
2023-05-21T14:51:47.739Z,6.90
2023-05-21T14:57:10.026Z,4.78
2023-05-21T15:02:32.896Z,4.82
2023-05-21T15:07:58.643Z,5.25
2023-05-21T15:13:21.571Z,5.38
2023-05-21T15:18:44.142Z,8.13
2023-05-21T15:24:06.667Z,6.78
2023-05-21T15:29:28.903Z,6.95
2023-05-21T15:34:52.025Z,8.20
2023-05-21T15:40:14.554Z,8.82
2023-05-21T15:45:38.471Z,7.80
2023-05-21T15:51:01.479Z,6.18
2023-05-21T15:56:23.982Z,7.93
2023-05-21T16:01:47.062Z,8.35
2023-05-21T16:07:09.690Z,4.40
2023-05-21T16:12:32.358Z,5.30
2023-05-21T16:17:54.907Z,6.72
2023-05-21T16:23:17.102Z,15.75
2023-05-21T16:28:39.509Z,6.63
2023-05-21T16:34:02.780Z,4.60
2023-05-21T16:39:25.311Z,5.35
2023-05-21T16:44:48.060Z,5.53
2023-05-21T16:50:10.488Z,8.27
2023-05-21T16:55:35.412Z,7.25
2023-05-21T17:00:57.789Z,5.43
2023-05-21T17:06:20.364Z,5.10
2023-05-21T17:11:43.704Z,4.90
2023-05-21T17:17:07.081Z,4.38
2023-05-21T17:22:29.394Z,8.70
2023-05-21T17:27:53.250Z,7.75
2023-05-21T17:33:16.364Z,8.25
2023-05-21T17:38:38.838Z,6.57
2023-05-21T17:44:02.612Z,7.15
2023-05-21T17:49:25.561Z,7.60
2023-05-21T17:54:48.324Z,4.53
2023-05-21T18:00:11.310Z,5.20
2023-05-21T18:05:36.791Z,7.68
2023-05-21T18:11:04.017Z,3.92
2023-05-21T18:16:26.729Z,5.25
2023-05-21T18:21:49.666Z,6.47
2023-05-21T18:27:12.536Z,5.85
2023-05-21T18:32:34.984Z,10.82
2023-05-21T18:37:57.819Z,7.15
2023-05-21T18:43:20.279Z,4.43
2023-05-21T18:48:42.734Z,6.97
2023-05-21T18:54:05.643Z,5.93
2023-05-21T18:59:31.517Z,6.65
2023-05-21T19:04:54.032Z,6.20
2023-05-21T19:10:16.309Z,7.32
2023-05-21T19:15:38.795Z,4.93
2023-05-21T19:21:01.324Z,5.07
2023-05-21T19:26:24.064Z,7.00
2023-05-21T19:31:46.441Z,4.47
2023-05-21T19:37:08.694Z,5.88
2023-05-21T19:42:31.293Z,8.90
2023-05-21T19:47:53.626Z,5.90
2023-05-21T19:53:15.994Z,4.97
2023-05-21T19:58:38.348Z,5.50
2023-05-21T20:04:01.100Z,9.63
2023-05-21T20:09:23.607Z,7.30
2023-05-21T20:14:47.752Z,7.90
2023-05-21T20:20:12.129Z,7.88
2023-05-21T20:25:34.812Z,5.53
2023-05-21T20:30:58.162Z,7.32
2023-05-21T20:36:21.376Z,4.93
2023-05-21T20:41:44.860Z,4.88
2023-05-21T20:47:07.268Z,5.22
2023-05-21T20:52:29.796Z,8.70
2023-05-21T20:57:52.673Z,6.13
2023-05-21T21:03:17.873Z,5.22
2023-05-21T21:08:40.777Z,4.78
2023-05-21T21:14:03.475Z,6.22
2023-05-21T21:19:26.083Z,7.85
2023-05-21T21:24:48.725Z,7.57
2023-05-21T21:30:11.366Z,7.93
2023-05-21T21:35:33.656Z,4.90
2023-05-21T21:40:56.056Z,6.90
2023-05-21T21:46:18.546Z,7.97
2023-05-21T21:51:41.302Z,4.50
2023-05-21T21:57:03.981Z,6.32
2023-05-21T22:02:26.525Z,4.72
2023-05-21T22:07:48.845Z,7.43
2023-05-21T22:13:12.934Z,6.68
2023-05-21T22:18:40.325Z,5.00
2023-05-21T22:24:04.141Z,4.53
2023-05-21T22:29:26.775Z,6.65
2023-05-21T22:34:49.382Z,6.80
2023-05-21T22:40:12.052Z,5.30
2023-05-21T22:45:35.985Z,6.80
2023-05-21T22:50:58.618Z,5.68
2023-05-21T22:56:22.157Z,4.82
2023-05-21T23:01:45.769Z,4.55
2023-05-21T23:07:08.082Z,7.10
2023-05-21T23:12:30.667Z,5.85
2023-05-21T23:17:52.979Z,5.03
2023-05-21T23:23:15.648Z,5.25
2023-05-21T23:28:38.723Z,4.50
2023-05-21T23:34:05.004Z,5.15
2023-05-21T23:39:28.741Z,4.68
2023-05-21T23:44:51.053Z,4.53
2023-05-21T23:50:13.595Z,6.22
2023-05-21T23:55:36.583Z,4.22
